Wheaton, Minnesota
Current Conditions -  °F | °C
As of 5:36 PM on Monday 20 Oct 2014 (Local Time) from KETH Reporting Station
Clear Clear  
Wind Chill: 63°   Ceiling: Unl
Heat Index: 63°   Visibility: 10mi
Dew Point: 39°   Wind: 7mph
Humidity: 42%   Direction: 10°N
Pressure: 30.05"   Gusts: NA
Location:  45.8°N, 96.5°W
Report Text: KETH 202236Z AUTO 01006KT 10SM CLR 17/04 A3005 RMK AO2
Loading
Personal Weather Stations






























Interactive Weather Map
Tropical Storm Tracking
New forecast layout! Learn more

10-Day Weather Forecast

Advertisements
Track Severe Weather on mobile